Time;durP1;ratioP1;P1;durP2;ratioP2;P2;SDS_P1;SDS_P2;PMS_P1;PMS_P2;Temp;Humidity;BMP_temperature;BMP_pressure;BME280_temperature;BME280_humidity;BME280_pressure;Samples;Min_cycle;Max_cycle;Signal;HPM_P1;HPM_P2
2021/04/23 00:02:13;;;;;;;;;;;4.00;92.50;;;;;;5023432;28;19921;-70
2021/04/23 00:04:38;;;;;;;;;;;4.00;92.60;;;;;;5030389;28;19917;-70
2021/04/23 00:07:04;;;;;;;;;;;3.90;92.40;;;;;;4999523;28;19968;-70
2021/04/23 00:09:31;;;;;;;;;;;3.90;92.70;;;;;;5012421;28;20341;-70
2021/04/23 00:11:59;;;;;;;;;;;3.90;92.60;;;;;;5010849;28;19960;-70
2021/04/23 00:14:26;;;;;;;;;;;4.00;92.60;;;;;;5011425;28;19920;-70
2021/04/23 00:16:52;;;;;;;;;;;3.90;92.70;;;;;;5011921;28;19917;-69
2021/04/23 00:19:20;;;;;;;;;;;4.00;92.60;;;;;;5008361;28;19921;-69
2021/04/23 00:21:45;;;;;;;;;;;4.00;92.50;;;;;;4990267;28;19922;-69
2021/04/23 00:24:11;;;;;;;;;;;4.00;92.50;;;;;;4995198;28;19914;-69
2021/04/23 00:26:38;;;;;;;;;;;4.00;92.60;;;;;;5008571;28;19914;-69
2021/04/23 00:29:04;;;;;;;;;;;4.00;92.40;;;;;;5009899;28;19917;-69
2021/04/23 00:31:30;;;;;;;;;;;4.00;92.40;;;;;;4995667;28;20398;-69
2021/04/23 00:33:55;;;;;;;;;;;4.00;92.30;;;;;;5013747;28;19913;-69
2021/04/23 00:36:22;;;;;;;;;;;3.90;92.50;;;;;;5012431;28;20447;-69
2021/04/23 00:38:48;;;;;;;;;;;4.00;92.30;;;;;;5006004;28;20475;-69
2021/04/23 00:41:15;;;;;;;;;;;3.90;92.50;;;;;;4999682;28;19929;-69
2021/04/23 00:43:42;;;;;;;;;;;3.90;92.50;;;;;;5011247;28;19918;-69
2021/04/23 00:46:08;;;;;;;;;;;3.80;92.60;;;;;;5013566;28;19956;-69
2021/04/23 00:48:35;;;;;;;;;;;3.80;92.60;;;;;;4991780;28;19921;-69
2021/04/23 00:51:05;;;;;;;;;;;3.90;92.60;;;;;;5011174;28;19920;-70
2021/04/23 00:53:32;;;;;;;;;;;3.90;92.90;;;;;;5008033;28;19913;-70
2021/04/23 00:55:59;;;;;;;;;;;3.80;92.70;;;;;;5011183;28;19949;-70
2021/04/23 00:58:26;;;;;;;;;;;3.80;92.60;;;;;;5011280;28;19914;-70
2021/04/23 01:00:53;;;;;;;;;;;3.70;92.50;;;;;;4997460;28;19926;-70
2021/04/23 01:03:19;;;;;;;;;;;3.80;92.60;;;;;;5012033;28;20000;-70
2021/04/23 01:05:45;;;;;;;;;;;3.80;92.60;;;;;;5009109;28;19968;-70
2021/04/23 01:08:11;;;;;;;;;;;3.70;92.60;;;;;;5007206;28;19921;-70
2021/04/23 01:10:37;;;;;;;;;;;3.70;92.50;;;;;;4997509;28;19920;-70
2021/04/23 01:13:02;;;;;;;;;;;3.80;92.60;;;;;;5010018;28;19921;-70
2021/04/23 01:15:28;;;;;;;;;;;3.70;92.50;;;;;;5010133;28;19917;-69
2021/04/23 01:17:54;;;;;;;;;;;3.80;92.60;;;;;;5006516;28;19967;-70
2021/04/23 01:20:20;;;;;;;;;;;3.80;92.50;;;;;;5010603;28;19921;-70
2021/04/23 01:22:46;;;;;;;;;;;3.80;92.50;;;;;;5001626;28;20005;-69
2021/04/23 01:25:12;;;;;;;;;;;3.80;92.50;;;;;;5010330;28;20031;-69
2021/04/23 01:27:38;;;;;;;;;;;3.80;92.50;;;;;;5009304;28;20037;-69
2021/04/23 01:30:06;;;;;;;;;;;3.80;92.40;;;;;;5008003;28;20000;-69
2021/04/23 01:32:31;;;;;;;;;;;3.80;92.60;;;;;;5006548;28;19913;-69
2021/04/23 01:34:57;;;;;;;;;;;3.70;92.60;;;;;;4996655;28;20012;-69
2021/04/23 01:37:22;;;;;;;;;;;3.70;92.80;;;;;;5009037;28;19918;-69
2021/04/23 01:39:48;;;;;;;;;;;3.80;92.70;;;;;;5010572;28;20005;-69
2021/04/23 01:42:14;;;;;;;;;;;3.70;92.70;;;;;;5010156;28;20345;-70
2021/04/23 01:44:40;;;;;;;;;;;3.70;92.70;;;;;;4991726;28;19914;-70
2021/04/23 01:47:06;;;;;;;;;;;3.70;92.60;;;;;;4999177;28;20020;-70
2021/04/23 01:49:33;;;;;;;;;;;3.60;92.60;;;;;;4997156;28;19981;-69
2021/04/23 01:52:00;;;;;;;;;;;3.60;92.60;;;;;;5010451;28;20290;-70
2021/04/23 01:54:26;;;;;;;;;;;3.70;92.80;;;;;;5011106;28;19913;-70
2021/04/23 01:56:52;;;;;;;;;;;3.70;92.50;;;;;;5009816;28;19940;-69
2021/04/23 01:59:18;;;;;;;;;;;3.60;92.50;;;;;;5006938;28;20657;-69
2021/04/23 02:01:44;;;;;;;;;;;3.60;92.50;;;;;;5007719;28;19926;-70
2021/04/23 02:04:11;;;;;;;;;;;3.60;92.70;;;;;;5009488;28;19921;-70
2021/04/23 02:06:37;;;;;;;;;;;3.70;92.30;;;;;;5011961;28;20004;-70
2021/04/23 02:09:04;;;;;;;;;;;3.80;91.80;;;;;;5009118;28;19926;-70
2021/04/23 02:11:30;;;;;;;;;;;3.70;91.90;;;;;;5009346;28;19913;-70
2021/04/23 02:13:56;;;;;;;;;;;3.70;92.00;;;;;;5007914;28;20290;-70
2021/04/23 02:16:22;;;;;;;;;;;3.70;91.80;;;;;;5008660;28;20015;-70
2021/04/23 02:18:49;;;;;;;;;;;3.70;91.60;;;;;;5013713;28;20054;-70
2021/04/23 02:21:16;;;;;;;;;;;3.80;91.50;;;;;;5007384;28;19929;-69
2021/04/23 02:23:42;;;;;;;;;;;3.80;91.40;;;;;;5010945;28;20008;-69
2021/04/23 02:26:08;;;;;;;;;;;3.70;91.40;;;;;;5006993;28;19924;-69
2021/04/23 02:28:33;;;;;;;;;;;3.70;91.40;;;;;;5009462;28;19918;-69
2021/04/23 02:31:01;;;;;;;;;;;3.70;91.20;;;;;;5010320;28;19913;-70
2021/04/23 02:33:26;;;;;;;;;;;3.70;91.10;;;;;;5011006;28;19914;-70
2021/04/23 02:35:54;;;;;;;;;;;3.70;91.40;;;;;;5008645;28;19913;-70
2021/04/23 02:38:20;;;;;;;;;;;3.70;91.50;;;;;;5005294;28;19914;-70
2021/04/23 02:40:46;;;;;;;;;;;3.70;91.50;;;;;;5009263;28;20341;-70
2021/04/23 02:43:16;;;;;;;;;;;3.70;91.50;;;;;;5010455;28;19913;-70
2021/04/23 02:45:43;;;;;;;;;;;3.70;91.30;;;;;;5004520;28;19922;-70
2021/04/23 02:48:10;;;;;;;;;;;3.70;91.50;;;;;;5000651;28;19924;-70
2021/04/23 02:50:35;;;;;;;;;;;3.70;91.60;;;;;;5003851;28;19920;-70
2021/04/23 02:53:02;;;;;;;;;;;3.70;91.70;;;;;;5006188;28;20349;-70
2021/04/23 02:55:27;;;;;;;;;;;3.70;91.50;;;;;;5009283;28;19968;-70
2021/04/23 02:58:04;;;;;;;;;;;3.70;91.50;;;;;;4988951;28;19918;-70
2021/04/23 03:00:32;;;;;;;;;;;3.60;91.80;;;;;;5002252;28;19925;-70
2021/04/23 03:02:57;;;;;;;;;;;3.60;91.70;;;;;;5005922;28;20362;-70
2021/04/23 03:05:24;;;;;;;;;;;3.60;91.70;;;;;;5007025;28;19963;-70
2021/04/23 03:07:50;;;;;;;;;;;3.50;91.80;;;;;;5002650;28;19921;-70
2021/04/23 03:10:17;;;;;;;;;;;3.50;92.00;;;;;;5003324;28;19913;-70
2021/04/23 03:12:42;;;;;;;;;;;3.50;91.90;;;;;;5008659;28;19918;-69
2021/04/23 03:15:08;;;;;;;;;;;3.50;92.00;;;;;;4996651;28;20378;-69
2021/04/23 03:17:34;;;;;;;;;;;3.50;91.90;;;;;;5000253;28;19925;-69
2021/04/23 03:20:00;;;;;;;;;;;3.50;92.00;;;;;;5006343;28;20024;-70
2021/04/23 03:22:25;;;;;;;;;;;3.50;92.00;;;;;;5001364;28;20422;-69
2021/04/23 03:24:51;;;;;;;;;;;3.50;92.10;;;;;;5008739;28;20608;-69
2021/04/23 03:27:17;;;;;;;;;;;3.40;92.00;;;;;;4984321;28;19914;-69
2021/04/23 03:29:43;;;;;;;;;;;3.50;91.70;;;;;;5000402;28;20004;-69
2021/04/23 03:32:08;;;;;;;;;;;3.50;91.50;;;;;;5008155;28;19921;-70
2021/04/23 03:34:34;;;;;;;;;;;3.40;91.70;;;;;;4986524;28;19921;-70
2021/04/23 03:36:59;;;;;;;;;;;3.40;91.80;;;;;;5011020;28;20629;-70
2021/04/23 03:39:25;;;;;;;;;;;3.40;91.60;;;;;;5007716;28;19965;-70
2021/04/23 03:41:51;;;;;;;;;;;3.40;91.60;;;;;;5002745;28;19928;-70
2021/04/23 03:44:16;;;;;;;;;;;3.40;91.50;;;;;;5002049;28;19913;-70
2021/04/23 03:46:42;;;;;;;;;;;3.40;91.30;;;;;;5009768;28;19918;-69
2021/04/23 03:49:07;;;;;;;;;;;3.50;91.20;;;;;;5011986;28;19913;-70
2021/04/23 03:51:33;;;;;;;;;;;3.50;91.30;;;;;;5008525;28;20019;-70
2021/04/23 03:53:59;;;;;;;;;;;3.40;91.20;;;;;;5009476;28;19917;-70
2021/04/23 03:56:24;;;;;;;;;;;3.50;91.20;;;;;;5003488;28;19918;-70
2021/04/23 03:58:50;;;;;;;;;;;3.60;91.20;;;;;;5010274;28;19918;-70
2021/04/23 04:01:17;;;;;;;;;;;3.60;91.20;;;;;;5000834;28;20024;-70
2021/04/23 04:03:44;;;;;;;;;;;3.80;91.20;;;;;;5014504;28;20286;-70
2021/04/23 04:06:09;;;;;;;;;;;4.10;90.40;;;;;;4999933;28;20016;-70
2021/04/23 04:08:35;;;;;;;;;;;4.50;88.50;;;;;;5018872;28;19976;-70
2021/04/23 04:11:02;;;;;;;;;;;5.00;86.30;;;;;;5026718;28;20290;-70
2021/04/23 04:13:28;;;;;;;;;;;5.30;84.30;;;;;;5032209;28;19917;-69
2021/04/23 04:15:53;;;;;;;;;;;5.60;82.80;;;;;;5033903;28;19932;-70
2021/04/23 04:18:19;;;;;;;;;;;5.60;82.60;;;;;;5031053;28;20631;-70
2021/04/23 04:20:47;;;;;;;;;;;5.40;83.20;;;;;;5013749;28;19991;-69
2021/04/23 04:23:17;;;;;;;;;;;5.20;84.10;;;;;;5029469;28;19918;-69
2021/04/23 04:25:44;;;;;;;;;;;5.10;83.40;;;;;;5019830;28;20007;-69
2021/04/23 04:28:09;;;;;;;;;;;4.90;84.10;;;;;;5029989;28;19939;-70
2021/04/23 04:30:36;;;;;;;;;;;4.90;85.00;;;;;;5032333;28;20355;-69
2021/04/23 04:33:02;;;;;;;;;;;4.90;84.90;;;;;;5025137;28;20425;-69
2021/04/23 04:35:28;;;;;;;;;;;4.90;83.60;;;;;;5017856;28;19967;-70
2021/04/23 04:37:54;;;;;;;;;;;5.00;82.50;;;;;;5024843;28;19917;-70
2021/04/23 04:40:20;;;;;;;;;;;5.00;82.10;;;;;;5028750;28;20004;-69
2021/04/23 04:42:46;;;;;;;;;;;5.00;81.40;;;;;;5033495;28;19909;-70
2021/04/23 04:45:14;;;;;;;;;;;5.10;82.00;;;;;;5021215;28;19925;-70
2021/04/23 04:47:40;;;;;;;;;;;5.20;81.80;;;;;;5023674;28;20396;-70
2021/04/23 04:50:07;;;;;;;;;;;5.20;80.50;;;;;;5015024;28;19913;-70
2021/04/23 04:52:33;;;;;;;;;;;5.30;79.80;;;;;;5028331;28;19921;-70
2021/04/23 04:54:58;;;;;;;;;;;5.30;79.20;;;;;;5031617;28;19931;-70
2021/04/23 04:57:24;;;;;;;;;;;5.40;79.80;;;;;;5031082;28;19917;-70
2021/04/23 04:59:49;;;;;;;;;;;5.40;79.50;;;;;;5022843;28;19918;-70
2021/04/23 05:02:15;;;;;;;;;;;5.50;79.30;;;;;;5000453;28;19913;-70
2021/04/23 05:04:41;;;;;;;;;;;5.70;79.90;;;;;;5022622;28;20368;-70
2021/04/23 05:07:06;;;;;;;;;;;5.70;77.20;;;;;;5017116;28;19979;-70
2021/04/23 05:09:32;;;;;;;;;;;5.80;77.90;;;;;;5030206;28;20499;-71
2021/04/23 05:11:58;;;;;;;;;;;5.90;76.90;;;;;;5026109;28;19917;-70
2021/04/23 05:14:23;;;;;;;;;;;6.10;77.80;;;;;;5004599;28;20378;-70
2021/04/23 05:16:50;;;;;;;;;;;6.10;76.20;;;;;;5024540;28;19920;-70
2021/04/23 05:19:16;;;;;;;;;;;6.30;75.40;;;;;;5021928;28;19968;-70
2021/04/23 05:21:42;;;;;;;;;;;6.40;74.40;;;;;;5024958;28;19925;-70
2021/04/23 05:24:08;;;;;;;;;;;6.40;73.80;;;;;;5024790;28;19921;-70
2021/04/23 05:26:33;;;;;;;;;;;6.50;74.40;;;;;;5022517;28;19928;-70
2021/04/23 05:28:59;;;;;;;;;;;6.60;75.20;;;;;;5027147;28;19913;-70
2021/04/23 05:31:25;;;;;;;;;;;6.60;74.10;;;;;;5016252;28;19924;-70
2021/04/23 05:33:50;;;;;;;;;;;6.70;74.50;;;;;;5032791;28;20003;-70
2021/04/23 05:36:16;;;;;;;;;;;6.70;73.10;;;;;;5030878;28;19920;-70
2021/04/23 05:38:41;;;;;;;;;;;6.80;73.60;;;;;;5024443;28;20408;-70
2021/04/23 05:41:07;;;;;;;;;;;6.80;73.30;;;;;;5025843;28;20441;-70
2021/04/23 05:43:32;;;;;;;;;;;6.90;73.40;;;;;;5009956;28;19924;-70
2021/04/23 05:45:58;;;;;;;;;;;6.90;72.50;;;;;;5027010;28;20286;-70
2021/04/23 05:48:23;;;;;;;;;;;7.10;73.00;;;;;;5003399;28;19917;-70
2021/04/23 05:50:49;;;;;;;;;;;7.30;73.20;;;;;;5020006;28;19956;-71
2021/04/23 05:53:15;;;;;;;;;;;7.30;72.60;;;;;;5019899;28;19955;-70
2021/04/23 05:55:41;;;;;;;;;;;7.40;71.00;;;;;;5021410;28;19914;-70
2021/04/23 05:58:07;;;;;;;;;;;7.50;70.50;;;;;;5002184;28;19923;-70
2021/04/23 06:00:33;;;;;;;;;;;7.60;71.70;;;;;;5020460;28;19925;-70
2021/04/23 06:03:00;;;;;;;;;;;7.60;70.20;;;;;;5020547;28;19913;-70
2021/04/23 06:05:28;;;;;;;;;;;7.60;71.70;;;;;;5022832;28;19916;-69
2021/04/23 06:07:56;;;;;;;;;;;7.70;71.40;;;;;;5005762;28;19960;-69
2021/04/23 06:10:22;;;;;;;;;;;7.80;70.90;;;;;;5002800;28;19921;-70
2021/04/23 06:12:48;;;;;;;;;;;7.90;70.80;;;;;;4990415;28;19917;-70
2021/04/23 06:15:13;;;;;;;;;;;7.90;69.60;;;;;;4995223;28;19921;-70
2021/04/23 06:17:39;;;;;;;;;;;7.80;68.90;;;;;;5002320;28;19917;-70
2021/04/23 06:20:15;;;;;;;;;;;7.90;69.60;;;;;;5007698;28;19918;-70
2021/04/23 06:22:41;;;;;;;;;;;7.90;67.90;;;;;;5000964;28;19921;-70
2021/04/23 06:25:07;;;;;;;;;;;8.00;68.40;;;;;;4999955;28;19967;-70
2021/04/23 06:27:33;;;;;;;;;;;8.00;67.80;;;;;;5010416;28;19913;-70
2021/04/23 06:29:58;;;;;;;;;;;8.20;68.50;;;;;;5000839;28;19920;-70
2021/04/23 06:32:24;;;;;;;;;;;8.10;66.10;;;;;;5001009;28;19926;-70
2021/04/23 06:34:50;;;;;;;;;;;8.10;66.10;;;;;;4977133;28;19913;-68
2021/04/23 06:37:15;;;;;;;;;;;8.20;66.90;;;;;;4995461;28;19914;-66
2021/04/23 06:39:41;;;;;;;;;;;8.20;67.20;;;;;;5002654;28;19913;-68
2021/04/23 06:42:06;;;;;;;;;;;8.30;67.60;;;;;;5002545;28;19917;-68
2021/04/23 06:44:32;;;;;;;;;;;8.40;67.30;;;;;;5000742;28;20285;-66
2021/04/23 06:46:57;;;;;;;;;;;8.40;67.10;;;;;;5000200;28;19918;-66
2021/04/23 06:49:23;;;;;;;;;;;8.50;67.00;;;;;;4994792;28;19949;-67
2021/04/23 06:51:49;;;;;;;;;;;8.50;68.20;;;;;;5000470;28;19921;-66
2021/04/23 06:54:15;;;;;;;;;;;8.70;66.40;;;;;;5002718;28;19913;-68
2021/04/23 06:56:41;;;;;;;;;;;8.80;67.50;;;;;;4976728;28;19932;-66
2021/04/23 06:59:08;;;;;;;;;;;9.20;66.60;;;;;;4998567;28;19922;-66
2021/04/23 07:01:33;;;;;;;;;;;9.20;66.10;;;;;;5001758;28;19953;-67
2021/04/23 07:03:59;;;;;;;;;;;9.20;66.40;;;;;;4996600;28;20382;-67
2021/04/23 07:06:24;;;;;;;;;;;9.10;66.70;;;;;;5004781;28;19926;-69
2021/04/23 07:08:50;;;;;;;;;;;9.10;65.40;;;;;;4998679;28;20017;-68
2021/04/23 07:11:17;;;;;;;;;;;8.80;65.20;;;;;;4996671;28;19913;-69
2021/04/23 07:13:43;;;;;;;;;;;8.60;65.80;;;;;;4998555;28;20000;-70
2021/04/23 07:16:09;;;;;;;;;;;8.40;66.00;;;;;;5000589;28;19913;-70
2021/04/23 07:18:34;;;;;;;;;;;8.40;65.70;;;;;;4997811;28;19921;-71
2021/04/23 07:21:00;;;;;;;;;;;8.50;66.90;;;;;;5006131;28;19921;-71
2021/04/23 07:23:26;;;;;;;;;;;8.60;66.60;;;;;;5003843;28;20000;-74
2021/04/23 07:25:51;;;;;;;;;;;8.80;66.70;;;;;;4997637;28;19918;-70
2021/04/23 07:28:17;;;;;;;;;;;9.00;66.80;;;;;;5001885;28;19914;-69
2021/04/23 07:30:42;;;;;;;;;;;9.10;66.00;;;;;;5005667;28;19925;-68
2021/04/23 07:33:12;;;;;;;;;;;9.10;64.30;;;;;;4996611;28;19921;-70
2021/04/23 07:35:37;;;;;;;;;;;9.10;63.60;;;;;;4981321;28;20323;-68
2021/04/23 07:38:03;;;;;;;;;;;9.00;62.70;;;;;;4990163;28;19921;-70
2021/04/23 07:40:29;;;;;;;;;;;9.10;64.40;;;;;;4995592;28;19937;-67
2021/04/23 07:42:55;;;;;;;;;;;9.30;64.60;;;;;;5008759;28;19961;-70
2021/04/23 07:45:21;;;;;;;;;;;9.40;64.20;;;;;;5008184;28;20291;-67
2021/04/23 07:47:46;;;;;;;;;;;9.50;64.10;;;;;;4994469;28;19919;-71
2021/04/23 07:50:13;;;;;;;;;;;9.60;63.60;;;;;;5000778;28;19964;-69
2021/04/23 07:52:39;;;;;;;;;;;9.80;63.30;;;;;;5004347;28;19964;-67
2021/04/23 07:55:05;;;;;;;;;;;9.90;62.00;;;;;;4993334;28;19952;-68
2021/04/23 07:57:30;;;;;;;;;;;10.00;61.40;;;;;;4999071;28;20355;-68
2021/04/23 07:59:56;;;;;;;;;;;9.90;60.70;;;;;;5003674;28;19913;-67
2021/04/23 08:02:22;;;;;;;;;;;9.90;60.10;;;;;;5004783;28;19924;-66
2021/04/23 08:04:48;;;;;;;;;;;9.90;61.20;;;;;;4998486;28;19980;-71
2021/04/23 08:07:13;;;;;;;;;;;9.80;59.60;;;;;;4985147;28;19933;-71
2021/04/23 08:09:40;;;;;;;;;;;9.90;60.90;;;;;;5014092;28;19928;-71
2021/04/23 08:12:06;;;;;;;;;;;10.00;59.60;;;;;;5017960;28;19913;-71
2021/04/23 08:14:32;;;;;;;;;;;10.00;58.90;;;;;;5013777;28;20008;-71
2021/04/23 08:16:57;;;;;;;;;;;9.90;58.70;;;;;;5015382;28;20012;-70
2021/04/23 08:19:23;;;;;;;;;;;9.90;58.80;;;;;;5021833;28;20378;-69
2021/04/23 08:21:48;;;;;;;;;;;9.70;58.90;;;;;;5020366;28;19944;-68
2021/04/23 08:24:15;;;;;;;;;;;9.60;55.20;;;;;;5004805;28;19917;-72
2021/04/23 08:26:42;;;;;;;;;;;9.50;56.10;;;;;;5000463;28;20001;-70
2021/04/23 08:29:10;;;;;;;;;;;9.60;55.40;;;;;;5017725;28;19928;-69
2021/04/23 08:31:37;;;;;;;;;;;9.40;55.50;;;;;;5017350;28;19914;-71
2021/04/23 08:34:03;;;;;;;;;;;9.50;54.90;;;;;;5000803;28;20015;-71
2021/04/23 08:36:29;;;;;;;;;;;9.60;55.70;;;;;;5027058;28;20450;-71
2021/04/23 08:38:54;;;;;;;;;;;9.70;55.20;;;;;;5023611;28;19967;-72
2021/04/23 08:41:20;;;;;;;;;;;9.90;55.70;;;;;;5019051;28;20517;-70
2021/04/23 08:43:45;;;;;;;;;;;10.00;56.40;;;;;;5016464;28;20354;-70
2021/04/23 08:46:11;;;;;;;;;;;10.10;54.20;;;;;;5017022;28;20244;-70
2021/04/23 08:48:37;;;;;;;;;;;10.10;53.70;;;;;;5018532;28;20283;-69
2021/04/23 08:51:03;;;;;;;;;;;10.10;52.70;;;;;;5017417;28;20753;-69
2021/04/23 08:53:29;;;;;;;;;;;10.10;53.80;;;;;;5026691;28;20020;-70
2021/04/23 08:55:55;;;;;;;;;;;10.10;51.50;;;;;;5025393;28;19957;-71
2021/04/23 08:58:21;;;;;;;;;;;10.10;48.90;;;;;;5020131;28;19924;-69
2021/04/23 09:00:47;;;;;;;;;;;10.30;49.90;;;;;;5034066;28;19917;-71
2021/04/23 09:03:15;;;;;;;;;;;10.30;52.00;;;;;;5027524;28;19917;-69
2021/04/23 09:05:41;;;;;;;;;;;10.60;50.10;;;;;;5027362;28;19987;-70
2021/04/23 09:08:08;;;;;;;;;;;10.80;50.80;;;;;;5004169;28;21554;-71
2021/04/23 09:10:34;;;;;;;;;;;10.80;48.10;;;;;;4996836;28;19928;-71
2021/04/23 09:13:16;;;;;;;;;;;10.70;48.90;;;;;;4997236;28;19928;-71
2021/04/23 09:15:45;;;;;;;;;;;11.10;49.80;;;;;;5001640;28;19913;-71
2021/04/23 09:18:10;;;;;;;;;;;11.50;49.60;;;;;;5002259;28;19913;-71
2021/04/23 09:20:37;;;;;;;;;;;11.60;50.60;;;;;;5003252;28;20740;-71
2021/04/23 09:23:16;;;;;;;;;;;11.40;49.40;;;;;;5005244;28;19971;-71
2021/04/23 09:25:50;;;;;;;;;;;11.40;50.10;;;;;;4986535;28;19972;-71
2021/04/23 09:28:31;;;;;;;;;;;11.30;49.60;;;;;;4994762;28;19922;-71
2021/04/23 09:30:57;;;;;;;;;;;11.40;50.20;;;;;;4997546;28;19961;-71
2021/04/23 09:33:24;;;;;;;;;;;11.00;49.50;;;;;;5005666;28;19956;-71
2021/04/23 09:35:49;;;;;;;;;;;10.90;52.00;;;;;;5006674;28;19917;-71
2021/04/23 09:38:15;;;;;;;;;;;10.80;52.80;;;;;;5002791;28;19921;-71
2021/04/23 09:40:40;;;;;;;;;;;10.50;53.60;;;;;;5004458;28;19922;-71
2021/04/23 09:43:06;;;;;;;;;;;10.20;53.00;;;;;;5004123;28;19917;-71
2021/04/23 09:45:33;;;;;;;;;;;9.90;55.80;;;;;;5000832;28;20016;-71
2021/04/23 09:48:00;;;;;;;;;;;9.30;57.90;;;;;;4992842;28;20370;-71
2021/04/23 09:50:31;;;;;;;;;;;9.20;61.30;;;;;;5000354;28;19952;-71
2021/04/23 09:52:57;;;;;;;;;;;9.10;62.20;;;;;;4993205;28;19913;-72
2021/04/23 09:55:27;;;;;;;;;;;9.10;60.90;;;;;;5001529;28;19964;-72
2021/04/23 09:57:59;;;;;;;;;;;9.00;59.00;;;;;;5009328;28;19917;-71
2021/04/23 10:00:26;;;;;;;;;;;9.10;56.30;;;;;;5008826;28;19999;-69
2021/04/23 10:02:55;;;;;;;;;;;9.10;55.50;;;;;;5005237;28;19968;-68
2021/04/23 10:05:31;;;;;;;;;;;9.30;54.90;;;;;;5003020;28;19920;-71
2021/04/23 10:07:56;;;;;;;;;;;9.70;57.60;;;;;;4994003;28;19934;-71
2021/04/23 10:10:22;;;;;;;;;;;10.10;58.50;;;;;;5000024;28;19914;-71
2021/04/23 10:12:55;;;;;;;;;;;10.30;57.30;;;;;;5013876;28;19918;-71
2021/04/23 10:15:25;;;;;;;;;;;10.60;56.40;;;;;;5008180;28;20013;-71
2021/04/23 10:18:11;;;;;;;;;;;10.80;54.60;;;;;;5002408;28;19920;-71
2021/04/23 10:20:40;;;;;;;;;;;10.60;49.80;;;;;;4980376;28;19980;-71
2021/04/23 10:23:07;;;;;;;;;;;10.60;45.30;;;;;;4998242;28;19917;-71
2021/04/23 10:25:33;;;;;;;;;;;10.50;49.50;;;;;;5000519;28;19922;-71
2021/04/23 10:28:00;;;;;;;;;;;10.60;51.80;;;;;;5005118;28;19920;-71
2021/04/23 10:30:27;;;;;;;;;;;10.80;51.50;;;;;;5003515;28;19917;-71
2021/04/23 10:33:02;;;;;;;;;;;11.00;52.70;;;;;;4980061;28;19922;-71
2021/04/23 10:35:29;;;;;;;;;;;11.20;53.10;;;;;;5001305;28;20424;-71
2021/04/23 10:37:59;;;;;;;;;;;11.30;52.60;;;;;;5006350;28;19955;-71
2021/04/23 10:40:24;;;;;;;;;;;11.40;51.00;;;;;;4970730;28;19922;-71
2021/04/23 10:42:54;;;;;;;;;;;11.30;51.00;;;;;;5000919;28;20383;-71
2021/04/23 10:45:21;;;;;;;;;;;11.20;50.50;;;;;;5008270;28;19936;-70
2021/04/23 10:47:46;;;;;;;;;;;11.10;49.30;;;;;;5007601;28;20281;-70
2021/04/23 10:50:14;;;;;;;;;;;11.40;49.20;;;;;;5003473;28;19917;-70
2021/04/23 10:53:02;;;;;;;;;;;10.90;57.10;;;;;;4981512;28;19983;-70
2021/04/23 10:55:57;;;;;;;;;;;9.60;64.70;;;;;;5001363;28;19918;-70
2021/04/23 10:58:29;;;;;;;;;;;8.50;71.90;;;;;;4989241;28;19918;-69
2021/04/23 11:00:56;;;;;;;;;;;7.50;78.60;;;;;;5004220;28;19928;-69
2021/04/23 11:03:21;;;;;;;;;;;7.10;80.80;;;;;;5001649;28;19917;-69
2021/04/23 11:05:47;;;;;;;;;;;6.60;88.30;;;;;;4998085;28;19920;-69
2021/04/23 11:08:13;;;;;;;;;;;6.00;90.60;;;;;;5021199;28;19933;-69
2021/04/23 11:10:58;;;;;;;;;;;5.70;92.20;;;;;;5015947;28;19914;-70
2021/04/23 11:13:24;;;;;;;;;;;5.60;92.80;;;;;;5019410;28;19921;-70
2021/04/23 11:16:09;;;;;;;;;;;5.60;93.50;;;;;;5022885;28;19913;-69
2021/04/23 11:18:34;;;;;;;;;;;5.60;93.70;;;;;;5025816;28;19913;-70
2021/04/23 11:21:19;;;;;;;;;;;5.80;92.90;;;;;;5028547;28;19975;-70
2021/04/23 11:24:03;;;;;;;;;;;5.80;92.10;;;;;;5025782;28;20361;-70
2021/04/23 11:26:48;;;;;;;;;;;5.80;92.40;;;;;;5023456;28;19928;-70
2021/04/23 11:29:14;;;;;;;;;;;5.70;92.40;;;;;;4994045;28;19920;-70
2021/04/23 11:31:58;;;;;;;;;;;5.60;93.80;;;;;;5020112;28;19913;-69
2021/04/23 11:34:35;;;;;;;;;;;5.50;94.40;;;;;;5018030;28;19920;-70
2021/04/23 11:37:02;;;;;;;;;;;5.60;94.50;;;;;;5022885;28;19913;-70
2021/04/23 11:39:28;;;;;;;;;;;5.80;94.40;;;;;;5025662;28;19913;-70
2021/04/23 11:42:06;;;;;;;;;;;6.00;93.60;;;;;;5025175;28;20282;-70
2021/04/23 11:44:39;;;;;;;;;;;6.30;94.00;;;;;;4998150;28;20281;-69
2021/04/23 11:47:04;;;;;;;;;;;6.60;92.80;;;;;;5019910;28;20329;-70
2021/04/23 11:49:30;;;;;;;;;;;6.80;92.40;;;;;;5019886;28;20015;-70
2021/04/23 11:52:00;;;;;;;;;;;6.80;91.20;;;;;;5003571;28;20539;-70
2021/04/23 11:54:33;;;;;;;;;;;6.80;91.70;;;;;;5029023;28;20011;-70
2021/04/23 11:57:00;;;;;;;;;;;6.80;91.90;;;;;;5028765;28;19950;-70
2021/04/23 11:59:25;;;;;;;;;;;6.90;92.30;;;;;;5021597;28;19920;-71
2021/04/23 12:01:51;;;;;;;;;;;7.00;91.40;;;;;;5022970;28;20385;-70
2021/04/23 12:04:37;;;;;;;;;;;7.10;91.00;;;;;;5025248;28;19922;-69
2021/04/23 12:07:03;;;;;;;;;;;7.10;90.10;;;;;;4991349;28;19941;-70
2021/04/23 12:09:28;;;;;;;;;;;7.20;90.40;;;;;;5001366;28;20589;-70
2021/04/23 12:12:04;;;;;;;;;;;7.30;89.90;;;;;;5007910;28;19921;-70
2021/04/23 12:14:40;;;;;;;;;;;7.40;89.70;;;;;;5000896;28;20368;-70
2021/04/23 12:17:05;;;;;;;;;;;7.60;90.10;;;;;;5002470;28;20009;-70
2021/04/23 12:19:31;;;;;;;;;;;7.70;88.90;;;;;;5005598;28;20012;-70
2021/04/23 12:21:57;;;;;;;;;;;8.10;89.80;;;;;;5008713;28;19925;-70
2021/04/23 12:24:23;;;;;;;;;;;8.30;90.00;;;;;;4999448;28;20017;-70
2021/04/23 12:26:48;;;;;;;;;;;8.50;84.90;;;;;;4986469;28;20353;-70
2021/04/23 12:29:14;;;;;;;;;;;8.40;84.60;;;;;;5003856;28;19914;-70
2021/04/23 12:31:40;;;;;;;;;;;8.50;84.00;;;;;;4997672;28;20267;-70
2021/04/23 12:34:10;;;;;;;;;;;8.30;84.00;;;;;;5003592;28;19996;-70
2021/04/23 12:36:37;;;;;;;;;;;8.40;83.70;;;;;;4990634;28;19917;-70
2021/04/23 12:39:08;;;;;;;;;;;8.30;84.30;;;;;;5000776;28;19917;-70
2021/04/23 12:41:35;;;;;;;;;;;8.50;85.20;;;;;;5003171;28;19929;-69
2021/04/23 12:44:20;;;;;;;;;;;8.70;85.00;;;;;;5000505;28;19921;-71
2021/04/23 12:46:48;;;;;;;;;;;8.80;83.20;;;;;;5012397;28;20382;-69
2021/04/23 12:49:15;;;;;;;;;;;9.00;84.10;;;;;;5008566;28;19918;-71
2021/04/23 12:51:44;;;;;;;;;;;8.80;80.40;;;;;;5007154;28;19949;-69
2021/04/23 12:54:10;;;;;;;;;;;8.80;79.60;;;;;;5010153;28;19913;-69
2021/04/23 12:56:37;;;;;;;;;;;8.70;80.30;;;;;;5009923;28;20001;-71
2021/04/23 12:59:03;;;;;;;;;;;8.80;81.40;;;;;;5002496;28;20023;-71
2021/04/23 13:01:29;;;;;;;;;;;8.90;81.20;;;;;;5009185;28;20397;-71
2021/04/23 13:04:01;;;;;;;;;;;8.90;80.10;;;;;;5003216;28;19913;-69
2021/04/23 13:06:27;;;;;;;;;;;9.00;81.30;;;;;;5004456;28;19979;-69
2021/04/23 13:09:12;;;;;;;;;;;9.20;80.50;;;;;;4999529;28;19925;-70
2021/04/23 13:11:38;;;;;;;;;;;9.40;78.20;;;;;;4996663;28;19923;-69
2021/04/23 13:14:18;;;;;;;;;;;9.60;77.50;;;;;;4993669;28;20043;-70
2021/04/23 13:16:56;;;;;;;;;;;9.60;75.60;;;;;;4975123;28;19917;-68
2021/04/23 13:19:35;;;;;;;;;;;9.60;76.00;;;;;;5005731;28;19913;-70
2021/04/23 13:22:00;;;;;;;;;;;9.70;75.40;;;;;;5005677;28;20389;-70
2021/04/23 13:24:27;;;;;;;;;;;9.60;75.00;;;;;;5005981;28;19913;-70
2021/04/23 13:26:52;;;;;;;;;;;9.40;71.50;;;;;;4996923;28;20012;-70
2021/04/23 13:29:18;;;;;;;;;;;9.40;73.70;;;;;;4975270;28;20004;-70
2021/04/23 13:31:43;;;;;;;;;;;9.60;73.00;;;;;;5001339;28;20713;-70
2021/04/23 13:34:10;;;;;;;;;;;9.70;74.20;;;;;;4997592;28;19917;-70
2021/04/23 13:36:47;;;;;;;;;;;9.80;73.00;;;;;;5003586;28;19984;-71
2021/04/23 13:39:13;;;;;;;;;;;9.80;71.70;;;;;;4990794;28;19929;-70
2021/04/23 13:41:40;;;;;;;;;;;10.10;72.70;;;;;;4996637;28;19922;-70
2021/04/23 13:44:10;;;;;;;;;;;10.30;72.60;;;;;;4994649;28;19929;-71
2021/04/23 13:46:53;;;;;;;;;;;10.40;69.10;;;;;;4995689;28;19971;-70
2021/04/23 13:49:29;;;;;;;;;;;10.40;70.00;;;;;;5002232;28;19983;-70
2021/04/23 13:51:58;;;;;;;;;;;10.30;68.60;;;;;;4991912;28;20565;-70
2021/04/23 13:54:24;;;;;;;;;;;10.20;70.10;;;;;;4999366;28;19940;-71
2021/04/23 13:56:51;;;;;;;;;;;10.00;70.00;;;;;;4998568;28;20363;-71
2021/04/23 13:59:24;;;;;;;;;;;9.80;69.70;;;;;;5000117;28;19976;-70
2021/04/23 14:01:54;;;;;;;;;;;9.80;70.40;;;;;;4993910;28;19921;-70
2021/04/23 14:04:21;;;;;;;;;;;9.80;70.70;;;;;;4993294;28;19933;-71
2021/04/23 14:06:47;;;;;;;;;;;9.90;71.10;;;;;;4999949;28;20028;-70
2021/04/23 14:09:13;;;;;;;;;;;9.90;68.40;;;;;;4998163;28;20349;-71
2021/04/23 14:11:41;;;;;;;;;;;10.00;69.00;;;;;;4996725;28;20342;-70
2021/04/23 14:14:07;;;;;;;;;;;10.20;67.80;;;;;;5004606;28;19968;-70
2021/04/23 14:16:34;;;;;;;;;;;10.10;67.30;;;;;;4997054;28;19922;-70
2021/04/23 14:18:59;;;;;;;;;;;10.00;68.30;;;;;;5008413;28;19957;-70
2021/04/23 14:21:26;;;;;;;;;;;9.50;67.10;;;;;;5002249;28;19971;-70
2021/04/23 14:23:52;;;;;;;;;;;8.70;69.20;;;;;;4996940;28;19916;-70
2021/04/23 14:26:17;;;;;;;;;;;8.30;71.70;;;;;;5003378;28;20308;-70
2021/04/23 14:28:47;;;;;;;;;;;7.70;74.00;;;;;;4974631;28;19914;-69
2021/04/23 14:31:13;;;;;;;;;;;7.40;76.30;;;;;;4981707;28;19971;-70